Fountain, Alabama
Current Conditions -  °F | °C
As of 6:53 AM on Sunday 21 Dec 2014 (Local Time) from KGZH Reporting Station
Haze Haze  
Wind Chill: 53°   Ceiling: 3300
Heat Index: 53°   Visibility: 5mi
Dew Point: 50°   Wind: 3mph
Humidity: 89%   Direction: 40°NE
Pressure: 30.12"   Gusts: NA
Location:  31.5178°N, 87.3209°W
Report Text: KGZH 211253Z AUTO 04003KT 5SM BR SCT008 OVC033 12/10 A3012 RMK AO2 SLP200 T01170100
Loading
Personal Weather Stations






























Interactive Weather Map New forecast layout! Learn more

10-Day Weather Forecast

Advertisements
Track Severe Weather on mobile